sensor_id;sensor_type;location;lat;lon;timestamp;P1;durP1;ratioP1;P2;durP2;ratioP2
43519;SDS011;46848;51.980;5.918;2024-02-14T00:00:07;3.23;;;1.73;;
43519;SDS011;46848;51.980;5.918;2024-02-14T00:02:39;4.20;;;2.07;;
43519;SDS011;46848;51.980;5.918;2024-02-14T00:05:14;4.23;;;1.87;;
43519;SDS011;46848;51.980;5.918;2024-02-14T00:07:40;4.03;;;1.83;;
43519;SDS011;46848;51.980;5.918;2024-02-14T00:10:06;6.33;;;1.90;;
43519;SDS011;46848;51.980;5.918;2024-02-14T00:12:32;3.60;;;1.70;;
43519;SDS011;46848;51.980;5.918;2024-02-14T00:15:00;3.10;;;1.63;;
43519;SDS011;46848;51.980;5.918;2024-02-14T00:17:26;3.20;;;1.77;;
43519;SDS011;46848;51.980;5.918;2024-02-14T00:19:51;3.20;;;1.37;;
43519;SDS011;46848;51.980;5.918;2024-02-14T00:22:17;3.90;;;1.77;;
43519;SDS011;46848;51.980;5.918;2024-02-14T00:24:43;3.57;;;1.50;;
43519;SDS011;46848;51.980;5.918;2024-02-14T00:27:08;3.73;;;1.90;;
43519;SDS011;46848;51.980;5.918;2024-02-14T00:29:34;3.97;;;1.77;;
43519;SDS011;46848;51.980;5.918;2024-02-14T00:32:00;4.30;;;1.80;;
43519;SDS011;46848;51.980;5.918;2024-02-14T00:34:26;4.33;;;1.97;;
43519;SDS011;46848;51.980;5.918;2024-02-14T00:36:52;3.93;;;1.80;;
43519;SDS011;46848;51.980;5.918;2024-02-14T00:39:18;3.27;;;1.73;;
43519;SDS011;46848;51.980;5.918;2024-02-14T00:41:45;2.43;;;1.50;;
43519;SDS011;46848;51.980;5.918;2024-02-14T00:44:12;2.93;;;1.60;;
43519;SDS011;46848;51.980;5.918;2024-02-14T00:46:38;3.10;;;1.60;;
43519;SDS011;46848;51.980;5.918;2024-02-14T00:49:04;3.80;;;1.50;;
43519;SDS011;46848;51.980;5.918;2024-02-14T00:51:29;2.90;;;1.50;;
43519;SDS011;46848;51.980;5.918;2024-02-14T00:53:56;4.70;;;1.63;;
43519;SDS011;46848;51.980;5.918;2024-02-14T00:56:22;3.23;;;1.70;;
43519;SDS011;46848;51.980;5.918;2024-02-14T00:58:48;4.23;;;1.40;;
43519;SDS011;46848;51.980;5.918;2024-02-14T01:01:14;3.10;;;1.70;;
43519;SDS011;46848;51.980;5.918;2024-02-14T01:03:40;4.27;;;1.60;;
43519;SDS011;46848;51.980;5.918;2024-02-14T01:06:06;3.97;;;1.80;;
43519;SDS011;46848;51.980;5.918;2024-02-14T01:08:31;3.70;;;1.57;;
43519;SDS011;46848;51.980;5.918;2024-02-14T01:10:58;3.13;;;1.87;;
43519;SDS011;46848;51.980;5.918;2024-02-14T01:13:24;4.23;;;2.00;;
43519;SDS011;46848;51.980;5.918;2024-02-14T01:15:49;4.40;;;2.17;;
43519;SDS011;46848;51.980;5.918;2024-02-14T01:18:15;6.77;;;1.97;;
43519;SDS011;46848;51.980;5.918;2024-02-14T01:20:41;3.80;;;2.10;;
43519;SDS011;46848;51.980;5.918;2024-02-14T01:23:06;4.67;;;2.33;;
43519;SDS011;46848;51.980;5.918;2024-02-14T01:25:32;3.90;;;2.07;;
43519;SDS011;46848;51.980;5.918;2024-02-14T01:27:58;4.00;;;1.90;;
43519;SDS011;46848;51.980;5.918;2024-02-14T01:30:26;5.40;;;2.50;;
43519;SDS011;46848;51.980;5.918;2024-02-14T01:32:51;3.93;;;1.93;;
43519;SDS011;46848;51.980;5.918;2024-02-14T01:35:18;4.83;;;2.10;;
43519;SDS011;46848;51.980;5.918;2024-02-14T01:37:43;6.27;;;2.50;;
43519;SDS011;46848;51.980;5.918;2024-02-14T01:40:10;4.80;;;2.40;;
43519;SDS011;46848;51.980;5.918;2024-02-14T01:42:36;3.60;;;2.40;;
43519;SDS011;46848;51.980;5.918;2024-02-14T01:45:01;5.30;;;2.20;;
43519;SDS011;46848;51.980;5.918;2024-02-14T01:47:28;5.03;;;2.37;;
43519;SDS011;46848;51.980;5.918;2024-02-14T01:49:54;3.87;;;2.30;;
43519;SDS011;46848;51.980;5.918;2024-02-14T01:52:19;4.23;;;2.40;;
43519;SDS011;46848;51.980;5.918;2024-02-14T01:54:46;5.23;;;2.43;;
43519;SDS011;46848;51.980;5.918;2024-02-14T01:57:15;6.50;;;2.80;;
43519;SDS011;46848;51.980;5.918;2024-02-14T01:59:41;4.93;;;2.50;;
43519;SDS011;46848;51.980;5.918;2024-02-14T02:02:06;6.13;;;2.60;;
43519;SDS011;46848;51.980;5.918;2024-02-14T02:04:33;6.43;;;3.00;;
43519;SDS011;46848;51.980;5.918;2024-02-14T02:07:00;4.20;;;2.70;;
43519;SDS011;46848;51.980;5.918;2024-02-14T02:09:26;5.53;;;3.20;;
43519;SDS011;46848;51.980;5.918;2024-02-14T02:11:52;6.23;;;3.00;;
43519;SDS011;46848;51.980;5.918;2024-02-14T02:14:19;7.83;;;3.57;;
43519;SDS011;46848;51.980;5.918;2024-02-14T02:16:46;5.93;;;3.10;;
43519;SDS011;46848;51.980;5.918;2024-02-14T02:19:12;7.50;;;3.03;;
43519;SDS011;46848;51.980;5.918;2024-02-14T02:21:38;4.93;;;3.00;;
43519;SDS011;46848;51.980;5.918;2024-02-14T02:24:04;6.50;;;3.00;;
43519;SDS011;46848;51.980;5.918;2024-02-14T02:26:30;7.77;;;3.47;;
43519;SDS011;46848;51.980;5.918;2024-02-14T02:28:56;6.23;;;3.20;;
43519;SDS011;46848;51.980;5.918;2024-02-14T02:31:21;6.37;;;3.20;;
43519;SDS011;46848;51.980;5.918;2024-02-14T02:33:48;7.97;;;3.80;;
43519;SDS011;46848;51.980;5.918;2024-02-14T02:36:14;6.63;;;3.20;;
43519;SDS011;46848;51.980;5.918;2024-02-14T02:38:41;5.00;;;2.90;;
43519;SDS011;46848;51.980;5.918;2024-02-14T02:41:07;8.17;;;3.27;;
43519;SDS011;46848;51.980;5.918;2024-02-14T02:43:32;7.77;;;3.20;;
43519;SDS011;46848;51.980;5.918;2024-02-14T02:45:59;6.83;;;3.67;;
43519;SDS011;46848;51.980;5.918;2024-02-14T02:48:24;6.53;;;3.00;;
43519;SDS011;46848;51.980;5.918;2024-02-14T02:50:50;6.10;;;3.43;;
43519;SDS011;46848;51.980;5.918;2024-02-14T02:53:18;5.37;;;3.20;;
43519;SDS011;46848;51.980;5.918;2024-02-14T02:55:44;6.07;;;3.20;;
43519;SDS011;46848;51.980;5.918;2024-02-14T02:58:10;6.80;;;3.00;;
43519;SDS011;46848;51.980;5.918;2024-02-14T03:00:36;4.70;;;2.93;;
43519;SDS011;46848;51.980;5.918;2024-02-14T03:03:02;5.83;;;3.47;;
43519;SDS011;46848;51.980;5.918;2024-02-14T03:05:31;5.13;;;2.93;;
43519;SDS011;46848;51.980;5.918;2024-02-14T03:07:59;6.80;;;3.50;;
43519;SDS011;46848;51.980;5.918;2024-02-14T03:10:25;4.93;;;2.90;;
43519;SDS011;46848;51.980;5.918;2024-02-14T03:12:51;6.17;;;3.13;;
43519;SDS011;46848;51.980;5.918;2024-02-14T03:15:17;7.13;;;3.30;;
43519;SDS011;46848;51.980;5.918;2024-02-14T03:17:43;5.70;;;3.10;;
43519;SDS011;46848;51.980;5.918;2024-02-14T03:20:10;5.90;;;3.37;;
43519;SDS011;46848;51.980;5.918;2024-02-14T03:22:38;8.50;;;3.17;;
43519;SDS011;46848;51.980;5.918;2024-02-14T03:25:09;4.40;;;3.20;;
43519;SDS011;46848;51.980;5.918;2024-02-14T03:27:44;6.33;;;3.10;;
43519;SDS011;46848;51.980;5.918;2024-02-14T03:30:14;7.43;;;3.30;;
43519;SDS011;46848;51.980;5.918;2024-02-14T03:32:41;4.13;;;3.10;;
43519;SDS011;46848;51.980;5.918;2024-02-14T03:35:07;4.13;;;2.73;;
43519;SDS011;46848;51.980;5.918;2024-02-14T03:37:35;6.27;;;3.47;;
43519;SDS011;46848;51.980;5.918;2024-02-14T03:40:02;4.50;;;3.30;;
43519;SDS011;46848;51.980;5.918;2024-02-14T03:42:29;7.93;;;4.07;;
43519;SDS011;46848;51.980;5.918;2024-02-14T03:44:55;5.87;;;3.53;;
43519;SDS011;46848;51.980;5.918;2024-02-14T03:47:27;5.93;;;3.30;;
43519;SDS011;46848;51.980;5.918;2024-02-14T03:49:54;6.37;;;3.63;;
43519;SDS011;46848;51.980;5.918;2024-02-14T03:52:19;6.57;;;3.80;;
43519;SDS011;46848;51.980;5.918;2024-02-14T03:54:47;6.03;;;3.50;;
43519;SDS011;46848;51.980;5.918;2024-02-14T03:57:13;5.63;;;3.57;;
43519;SDS011;46848;51.980;5.918;2024-02-14T03:59:39;7.20;;;4.27;;
43519;SDS011;46848;51.980;5.918;2024-02-14T04:02:05;7.00;;;4.30;;
43519;SDS011;46848;51.980;5.918;2024-02-14T04:04:36;6.10;;;4.10;;
43519;SDS011;46848;51.980;5.918;2024-02-14T04:07:02;7.50;;;4.13;;
43519;SDS011;46848;51.980;5.918;2024-02-14T04:09:28;6.70;;;4.07;;
43519;SDS011;46848;51.980;5.918;2024-02-14T04:11:54;5.93;;;3.80;;
43519;SDS011;46848;51.980;5.918;2024-02-14T04:14:20;7.47;;;4.73;;
43519;SDS011;46848;51.980;5.918;2024-02-14T04:16:47;8.17;;;4.20;;
43519;SDS011;46848;51.980;5.918;2024-02-14T04:19:12;10.57;;;4.53;;
43519;SDS011;46848;51.980;5.918;2024-02-14T04:21:38;8.30;;;4.63;;
43519;SDS011;46848;51.980;5.918;2024-02-14T04:24:04;9.07;;;4.50;;
43519;SDS011;46848;51.980;5.918;2024-02-14T04:26:30;8.07;;;5.00;;
43519;SDS011;46848;51.980;5.918;2024-02-14T04:28:56;11.30;;;5.87;;
43519;SDS011;46848;51.980;5.918;2024-02-14T04:31:25;9.83;;;4.60;;
43519;SDS011;46848;51.980;5.918;2024-02-14T04:33:51;8.17;;;4.63;;
43519;SDS011;46848;51.980;5.918;2024-02-14T04:36:18;8.23;;;4.77;;
43519;SDS011;46848;51.980;5.918;2024-02-14T04:38:46;6.73;;;4.23;;
43519;SDS011;46848;51.980;5.918;2024-02-14T04:41:12;7.72;;;4.82;;
43519;SDS011;46848;51.980;5.918;2024-02-14T04:43:39;7.77;;;4.87;;
43519;SDS011;46848;51.980;5.918;2024-02-14T04:46:05;9.33;;;4.90;;
43519;SDS011;46848;51.980;5.918;2024-02-14T04:48:34;8.83;;;5.17;;
43519;SDS011;46848;51.980;5.918;2024-02-14T04:51:01;9.77;;;5.63;;
43519;SDS011;46848;51.980;5.918;2024-02-14T04:53:27;7.63;;;5.03;;
43519;SDS011;46848;51.980;5.918;2024-02-14T04:55:53;12.90;;;5.80;;
43519;SDS011;46848;51.980;5.918;2024-02-14T04:58:19;9.43;;;5.20;;
43519;SDS011;46848;51.980;5.918;2024-02-14T05:00:45;8.03;;;5.43;;
43519;SDS011;46848;51.980;5.918;2024-02-14T05:03:11;8.93;;;5.47;;
43519;SDS011;46848;51.980;5.918;2024-02-14T05:05:37;10.13;;;5.63;;
43519;SDS011;46848;51.980;5.918;2024-02-14T05:08:03;9.27;;;4.97;;
43519;SDS011;46848;51.980;5.918;2024-02-14T05:10:29;7.10;;;5.38;;
43519;SDS011;46848;51.980;5.918;2024-02-14T05:12:55;7.85;;;5.82;;
43519;SDS011;46848;51.980;5.918;2024-02-14T05:15:21;6.70;;;5.25;;
43519;SDS011;46848;51.980;5.918;2024-02-14T05:17:47;10.57;;;5.17;;
43519;SDS011;46848;51.980;5.918;2024-02-14T05:20:14;10.85;;;5.78;;
43519;SDS011;46848;51.980;5.918;2024-02-14T05:22:39;6.78;;;4.45;;
43519;SDS011;46848;51.980;5.918;2024-02-14T05:25:05;10.98;;;5.40;;
43519;SDS011;46848;51.980;5.918;2024-02-14T05:27:34;8.10;;;5.22;;
43519;SDS011;46848;51.980;5.918;2024-02-14T05:30:01;9.05;;;5.05;;
43519;SDS011;46848;51.980;5.918;2024-02-14T05:32:30;8.60;;;5.18;;
43519;SDS011;46848;51.980;5.918;2024-02-14T05:34:57;8.73;;;5.40;;
43519;SDS011;46848;51.980;5.918;2024-02-14T05:37:22;6.43;;;4.87;;
43519;SDS011;46848;51.980;5.918;2024-02-14T05:39:48;8.43;;;5.28;;
43519;SDS011;46848;51.980;5.918;2024-02-14T05:42:13;6.82;;;4.47;;
43519;SDS011;46848;51.980;5.918;2024-02-14T05:44:41;6.20;;;4.85;;
43519;SDS011;46848;51.980;5.918;2024-02-14T05:47:08;11.35;;;5.47;;
43519;SDS011;46848;51.980;5.918;2024-02-14T05:49:33;8.87;;;5.70;;
43519;SDS011;46848;51.980;5.918;2024-02-14T05:51:59;7.22;;;4.70;;
43519;SDS011;46848;51.980;5.918;2024-02-14T05:54:25;7.73;;;5.70;;
43519;SDS011;46848;51.980;5.918;2024-02-14T05:56:50;12.07;;;5.80;;
43519;SDS011;46848;51.980;5.918;2024-02-14T05:59:16;6.67;;;4.90;;
43519;SDS011;46848;51.980;5.918;2024-02-14T06:01:41;5.97;;;4.85;;
43519;SDS011;46848;51.980;5.918;2024-02-14T06:04:07;7.90;;;5.00;;
43519;SDS011;46848;51.980;5.918;2024-02-14T06:06:32;7.13;;;5.17;;
43519;SDS011;46848;51.980;5.918;2024-02-14T06:08:58;8.77;;;5.30;;
43519;SDS011;46848;51.980;5.918;2024-02-14T06:11:23;8.30;;;4.87;;
43519;SDS011;46848;51.980;5.918;2024-02-14T06:13:49;7.33;;;5.13;;
43519;SDS011;46848;51.980;5.918;2024-02-14T06:16:15;9.80;;;4.90;;
43519;SDS011;46848;51.980;5.918;2024-02-14T06:18:40;9.02;;;4.57;;
43519;SDS011;46848;51.980;5.918;2024-02-14T06:21:06;6.37;;;4.60;;
43519;SDS011;46848;51.980;5.918;2024-02-14T06:23:32;8.00;;;5.00;;
43519;SDS011;46848;51.980;5.918;2024-02-14T06:25:58;8.02;;;5.53;;
43519;SDS011;46848;51.980;5.918;2024-02-14T06:28:23;8.30;;;5.53;;
43519;SDS011;46848;51.980;5.918;2024-02-14T06:30:49;8.02;;;5.07;;
43519;SDS011;46848;51.980;5.918;2024-02-14T06:33:15;7.33;;;5.40;;
43519;SDS011;46848;51.980;5.918;2024-02-14T06:35:41;9.13;;;5.10;;
43519;SDS011;46848;51.980;5.918;2024-02-14T06:38:06;7.60;;;4.95;;
43519;SDS011;46848;51.980;5.918;2024-02-14T06:40:32;6.45;;;4.70;;
43519;SDS011;46848;51.980;5.918;2024-02-14T06:42:58;6.07;;;4.50;;
43519;SDS011;46848;51.980;5.918;2024-02-14T06:45:28;7.38;;;5.78;;
43519;SDS011;46848;51.980;5.918;2024-02-14T06:47:54;9.77;;;6.93;;
43519;SDS011;46848;51.980;5.918;2024-02-14T06:50:20;8.15;;;5.97;;
43519;SDS011;46848;51.980;5.918;2024-02-14T06:52:46;7.23;;;5.60;;
43519;SDS011;46848;51.980;5.918;2024-02-14T06:55:12;7.35;;;5.28;;
43519;SDS011;46848;51.980;5.918;2024-02-14T06:57:38;5.50;;;4.32;;
43519;SDS011;46848;51.980;5.918;2024-02-14T07:00:04;6.55;;;4.90;;
43519;SDS011;46848;51.980;5.918;2024-02-14T07:02:31;7.03;;;4.90;;
43519;SDS011;46848;51.980;5.918;2024-02-14T07:04:57;6.43;;;4.73;;
43519;SDS011;46848;51.980;5.918;2024-02-14T07:07:22;6.70;;;4.18;;
43519;SDS011;46848;51.980;5.918;2024-02-14T07:09:48;5.55;;;4.03;;
43519;SDS011;46848;51.980;5.918;2024-02-14T07:12:13;5.47;;;4.25;;
43519;SDS011;46848;51.980;5.918;2024-02-14T07:14:39;5.70;;;4.15;;
43519;SDS011;46848;51.980;5.918;2024-02-14T07:17:05;6.07;;;3.78;;
43519;SDS011;46848;51.980;5.918;2024-02-14T07:19:31;5.40;;;3.80;;
43519;SDS011;46848;51.980;5.918;2024-02-14T07:21:56;6.18;;;4.03;;
43519;SDS011;46848;51.980;5.918;2024-02-14T07:24:22;6.18;;;4.50;;
43519;SDS011;46848;51.980;5.918;2024-02-14T07:26:48;8.10;;;4.30;;
43519;SDS011;46848;51.980;5.918;2024-02-14T07:29:13;7.32;;;5.10;;
43519;SDS011;46848;51.980;5.918;2024-02-14T07:31:39;9.45;;;4.93;;
43519;SDS011;46848;51.980;5.918;2024-02-14T07:34:04;5.93;;;4.65;;
43519;SDS011;46848;51.980;5.918;2024-02-14T07:36:31;6.65;;;4.30;;
43519;SDS011;46848;51.980;5.918;2024-02-14T07:38:57;6.95;;;4.60;;
43519;SDS011;46848;51.980;5.918;2024-02-14T07:41:22;6.00;;;4.43;;
43519;SDS011;46848;51.980;5.918;2024-02-14T07:43:48;6.53;;;4.55;;
43519;SDS011;46848;51.980;5.918;2024-02-14T07:46:18;5.68;;;4.00;;
43519;SDS011;46848;51.980;5.918;2024-02-14T07:48:44;6.20;;;4.57;;
43519;SDS011;46848;51.980;5.918;2024-02-14T07:51:10;5.88;;;4.40;;
43519;SDS011;46848;51.980;5.918;2024-02-14T07:53:35;5.57;;;4.25;;
43519;SDS011;46848;51.980;5.918;2024-02-14T07:56:01;8.15;;;5.03;;
43519;SDS011;46848;51.980;5.918;2024-02-14T07:58:26;5.85;;;4.50;;
43519;SDS011;46848;51.980;5.918;2024-02-14T08:00:52;6.03;;;4.65;;
43519;SDS011;46848;51.980;5.918;2024-02-14T08:03:17;6.05;;;4.70;;
43519;SDS011;46848;51.980;5.918;2024-02-14T08:05:43;7.00;;;4.63;;
43519;SDS011;46848;51.980;5.918;2024-02-14T08:08:08;6.90;;;5.25;;
43519;SDS011;46848;51.980;5.918;2024-02-14T08:10:34;10.23;;;5.63;;
43519;SDS011;46848;51.980;5.918;2024-02-14T08:13:00;5.80;;;4.68;;
43519;SDS011;46848;51.980;5.918;2024-02-14T08:15:25;7.20;;;5.05;;
43519;SDS011;46848;51.980;5.918;2024-02-14T08:17:51;6.78;;;4.75;;
43519;SDS011;46848;51.980;5.918;2024-02-14T08:20:20;7.38;;;5.22;;
43519;SDS011;46848;51.980;5.918;2024-02-14T08:22:46;7.55;;;6.05;;
43519;SDS011;46848;51.980;5.918;2024-02-14T08:25:11;10.25;;;6.53;;
43519;SDS011;46848;51.980;5.918;2024-02-14T08:27:37;9.10;;;6.63;;
43519;SDS011;46848;51.980;5.918;2024-02-14T08:30:02;8.18;;;6.40;;
43519;SDS011;46848;51.980;5.918;2024-02-14T08:32:31;9.20;;;6.43;;
43519;SDS011;46848;51.980;5.918;2024-02-14T08:34:57;9.77;;;6.70;;
43519;SDS011;46848;51.980;5.918;2024-02-14T08:37:22;8.70;;;5.72;;
43519;SDS011;46848;51.980;5.918;2024-02-14T08:39:49;9.13;;;6.07;;
43519;SDS011;46848;51.980;5.918;2024-02-14T08:42:15;9.82;;;5.22;;
43519;SDS011;46848;51.980;5.918;2024-02-14T08:44:41;7.55;;;5.15;;
43519;SDS011;46848;51.980;5.918;2024-02-14T08:47:06;6.80;;;4.72;;
43519;SDS011;46848;51.980;5.918;2024-02-14T08:49:32;7.72;;;4.63;;
43519;SDS011;46848;51.980;5.918;2024-02-14T08:51:58;6.07;;;4.28;;
43519;SDS011;46848;51.980;5.918;2024-02-14T08:54:24;8.00;;;4.10;;
43519;SDS011;46848;51.980;5.918;2024-02-14T08:56:50;6.38;;;4.18;;
43519;SDS011;46848;51.980;5.918;2024-02-14T08:59:18;5.93;;;4.10;;
43519;SDS011;46848;51.980;5.918;2024-02-14T09:01:44;6.63;;;4.30;;
43519;SDS011;46848;51.980;5.918;2024-02-14T09:04:10;8.27;;;4.10;;
43519;SDS011;46848;51.980;5.918;2024-02-14T09:06:36;6.10;;;3.72;;
43519;SDS011;46848;51.980;5.918;2024-02-14T09:09:04;5.82;;;4.05;;
43519;SDS011;46848;51.980;5.918;2024-02-14T09:11:29;5.25;;;3.65;;
43519;SDS011;46848;51.980;5.918;2024-02-14T09:13:56;5.90;;;3.67;;
43519;SDS011;46848;51.980;5.918;2024-02-14T09:16:27;8.82;;;3.97;;
43519;SDS011;46848;51.980;5.918;2024-02-14T09:18:53;6.55;;;3.17;;
43519;SDS011;46848;51.980;5.918;2024-02-14T09:21:18;5.32;;;3.40;;
43519;SDS011;46848;51.980;5.918;2024-02-14T09:23:46;5.25;;;3.20;;
43519;SDS011;46848;51.980;5.918;2024-02-14T09:26:12;4.40;;;2.97;;
43519;SDS011;46848;51.980;5.918;2024-02-14T09:28:40;5.55;;;3.58;;
43519;SDS011;46848;51.980;5.918;2024-02-14T09:31:05;3.70;;;2.67;;
43519;SDS011;46848;51.980;5.918;2024-02-14T09:33:31;5.78;;;3.03;;
43519;SDS011;46848;51.980;5.918;2024-02-14T09:35:57;7.32;;;3.88;;
43519;SDS011;46848;51.980;5.918;2024-02-14T09:38:22;5.65;;;3.40;;
43519;SDS011;46848;51.980;5.918;2024-02-14T09:40:49;4.50;;;2.97;;
43519;SDS011;46848;51.980;5.918;2024-02-14T09:43:28;6.85;;;3.42;;
43519;SDS011;46848;51.980;5.918;2024-02-14T09:46:08;3.90;;;2.72;;
43519;SDS011;46848;51.980;5.918;2024-02-14T09:48:34;5.55;;;3.25;;
43519;SDS011;46848;51.980;5.918;2024-02-14T09:51:02;6.47;;;3.50;;
43519;SDS011;46848;51.980;5.918;2024-02-14T09:53:28;7.25;;;3.53;;
43519;SDS011;46848;51.980;5.918;2024-02-14T09:55:55;5.78;;;3.50;;
43519;SDS011;46848;51.980;5.918;2024-02-14T09:58:22;7.47;;;3.38;;
43519;SDS011;46848;51.980;5.918;2024-02-14T10:00:48;6.03;;;3.50;;
43519;SDS011;46848;51.980;5.918;2024-02-14T10:03:15;6.80;;;3.70;;
43519;SDS011;46848;51.980;5.918;2024-02-14T10:05:41;9.93;;;4.25;;
43519;SDS011;46848;51.980;5.918;2024-02-14T10:08:06;5.78;;;3.67;;
43519;SDS011;46848;51.980;5.918;2024-02-14T10:10:34;7.20;;;3.95;;
43519;SDS011;46848;51.980;5.918;2024-02-14T10:13:00;6.30;;;3.63;;
43519;SDS011;46848;51.980;5.918;2024-02-14T10:15:28;7.80;;;4.25;;
43519;SDS011;46848;51.980;5.918;2024-02-14T10:17:54;8.27;;;4.45;;
43519;SDS011;46848;51.980;5.918;2024-02-14T10:20:20;6.60;;;4.00;;
43519;SDS011;46848;51.980;5.918;2024-02-14T10:22:46;6.95;;;4.82;;
43519;SDS011;46848;51.980;5.918;2024-02-14T10:25:12;8.45;;;4.15;;
43519;SDS011;46848;51.980;5.918;2024-02-14T10:27:39;7.85;;;4.20;;
43519;SDS011;46848;51.980;5.918;2024-02-14T10:30:06;11.55;;;4.90;;
43519;SDS011;46848;51.980;5.918;2024-02-14T10:32:39;8.73;;;4.55;;
43519;SDS011;46848;51.980;5.918;2024-02-14T10:35:12;7.88;;;4.20;;
43519;SDS011;46848;51.980;5.918;2024-02-14T10:37:39;8.05;;;4.20;;
43519;SDS011;46848;51.980;5.918;2024-02-14T10:40:05;6.28;;;3.75;;
43519;SDS011;46848;51.980;5.918;2024-02-14T10:42:32;7.35;;;4.18;;
43519;SDS011;46848;51.980;5.918;2024-02-14T10:44:59;7.60;;;4.43;;
43519;SDS011;46848;51.980;5.918;2024-02-14T10:47:33;8.13;;;4.10;;
43519;SDS011;46848;51.980;5.918;2024-02-14T10:50:01;7.32;;;4.32;;
43519;SDS011;46848;51.980;5.918;2024-02-14T10:52:36;7.95;;;4.82;;
43519;SDS011;46848;51.980;5.918;2024-02-14T10:55:05;6.28;;;4.18;;
43519;SDS011;46848;51.980;5.918;2024-02-14T10:57:31;7.53;;;4.60;;
43519;SDS011;46848;51.980;5.918;2024-02-14T11:00:02;7.75;;;4.05;;
43519;SDS011;46848;51.980;5.918;2024-02-14T11:02:32;8.82;;;3.88;;
43519;SDS011;46848;51.980;5.918;2024-02-14T11:04:59;7.60;;;4.05;;
43519;SDS011;46848;51.980;5.918;2024-02-14T11:07:27;8.40;;;3.92;;
43519;SDS011;46848;51.980;5.918;2024-02-14T11:10:00;8.05;;;3.80;;
43519;SDS011;46848;51.980;5.918;2024-02-14T11:12:40;9.70;;;3.92;;
43519;SDS011;46848;51.980;5.918;2024-02-14T11:15:24;8.50;;;4.60;;
43519;SDS011;46848;51.980;5.918;2024-02-14T11:17:50;9.73;;;4.32;;
43519;SDS011;46848;51.980;5.918;2024-02-14T11:20:18;7.55;;;3.90;;
43519;SDS011;46848;51.980;5.918;2024-02-14T11:22:54;8.15;;;4.15;;
43519;SDS011;46848;51.980;5.918;2024-02-14T11:25:32;8.63;;;4.28;;
43519;SDS011;46848;51.980;5.918;2024-02-14T11:28:12;5.78;;;3.30;;
43519;SDS011;46848;51.980;5.918;2024-02-14T11:30:39;7.43;;;3.60;;
43519;SDS011;46848;51.980;5.918;2024-02-14T11:33:19;6.88;;;3.58;;
43519;SDS011;46848;51.980;5.918;2024-02-14T11:35:52;5.85;;;3.38;;
43519;SDS011;46848;51.980;5.918;2024-02-14T11:38:19;6.40;;;3.90;;
43519;SDS011;46848;51.980;5.918;2024-02-14T11:40:45;7.95;;;3.50;;
43519;SDS011;46848;51.980;5.918;2024-02-14T11:43:15;5.95;;;3.40;;
43519;SDS011;46848;51.980;5.918;2024-02-14T11:45:42;8.43;;;3.92;;
43519;SDS011;46848;51.980;5.918;2024-02-14T11:48:12;7.45;;;3.85;;
43519;SDS011;46848;51.980;5.918;2024-02-14T11:50:41;6.55;;;3.28;;
43519;SDS011;46848;51.980;5.918;2024-02-14T11:53:08;7.47;;;4.00;;
43519;SDS011;46848;51.980;5.918;2024-02-14T11:55:41;5.15;;;3.25;;
43519;SDS011;46848;51.980;5.918;2024-02-14T11:58:07;6.10;;;3.85;;
43519;SDS011;46848;51.980;5.918;2024-02-14T12:00:38;6.65;;;4.00;;
43519;SDS011;46848;51.980;5.918;2024-02-14T12:03:06;6.20;;;3.78;;
43519;SDS011;46848;51.980;5.918;2024-02-14T12:05:33;7.32;;;3.72;;
43519;SDS011;46848;51.980;5.918;2024-02-14T12:08:00;7.13;;;3.42;;
43519;SDS011;46848;51.980;5.918;2024-02-14T12:10:27;6.75;;;3.47;;
43519;SDS011;46848;51.980;5.918;2024-02-14T12:12:55;5.70;;;3.33;;
43519;SDS011;46848;51.980;5.918;2024-02-14T12:15:21;5.63;;;3.05;;
43519;SDS011;46848;51.980;5.918;2024-02-14T12:17:47;5.70;;;3.38;;
43519;SDS011;46848;51.980;5.918;2024-02-14T12:20:13;5.80;;;2.95;;
43519;SDS011;46848;51.980;5.918;2024-02-14T12:22:40;5.50;;;3.08;;
43519;SDS011;46848;51.980;5.918;2024-02-14T12:25:06;4.00;;;2.60;;
43519;SDS011;46848;51.980;5.918;2024-02-14T12:27:36;5.18;;;2.72;;
43519;SDS011;46848;51.980;5.918;2024-02-14T12:30:03;4.70;;;2.95;;
43519;SDS011;46848;51.980;5.918;2024-02-14T12:32:30;4.90;;;2.83;;
43519;SDS011;46848;51.980;5.918;2024-02-14T12:34:56;4.40;;;2.70;;
43519;SDS011;46848;51.980;5.918;2024-02-14T12:37:22;5.45;;;2.35;;
43519;SDS011;46848;51.980;5.918;2024-02-14T12:39:48;4.65;;;2.33;;
43519;SDS011;46848;51.980;5.918;2024-02-14T12:42:14;4.97;;;2.30;;
43519;SDS011;46848;51.980;5.918;2024-02-14T12:44:40;5.30;;;2.38;;
43519;SDS011;46848;51.980;5.918;2024-02-14T12:47:05;3.00;;;2.00;;
43519;SDS011;46848;51.980;5.918;2024-02-14T12:49:32;3.40;;;1.80;;
43519;SDS011;46848;51.980;5.918;2024-02-14T12:51:58;6.60;;;2.63;;
43519;SDS011;46848;51.980;5.918;2024-02-14T12:54:24;4.80;;;2.05;;
43519;SDS011;46848;51.980;5.918;2024-02-14T12:56:50;3.40;;;2.00;;
43519;SDS011;46848;51.980;5.918;2024-02-14T12:59:17;2.85;;;1.83;;
43519;SDS011;46848;51.980;5.918;2024-02-14T13:01:43;3.72;;;2.00;;
43519;SDS011;46848;51.980;5.918;2024-02-14T13:04:09;3.10;;;1.80;;
43519;SDS011;46848;51.980;5.918;2024-02-14T13:06:35;4.07;;;1.70;;
43519;SDS011;46848;51.980;5.918;2024-02-14T13:09:02;3.22;;;1.92;;
43519;SDS011;46848;51.980;5.918;2024-02-14T13:11:31;3.30;;;1.85;;
43519;SDS011;46848;51.980;5.918;2024-02-14T13:13:57;2.50;;;1.52;;
43519;SDS011;46848;51.980;5.918;2024-02-14T13:16:23;3.03;;;1.60;;
43519;SDS011;46848;51.980;5.918;2024-02-14T13:18:49;2.60;;;1.60;;
43519;SDS011;46848;51.980;5.918;2024-02-14T13:21:15;2.80;;;1.42;;
43519;SDS011;46848;51.980;5.918;2024-02-14T13:23:41;2.10;;;1.58;;
43519;SDS011;46848;51.980;5.918;2024-02-14T13:26:07;2.42;;;1.38;;
43519;SDS011;46848;51.980;5.918;2024-02-14T13:28:33;2.92;;;1.50;;
43519;SDS011;46848;51.980;5.918;2024-02-14T13:30:58;2.13;;;1.38;;
43519;SDS011;46848;51.980;5.918;2024-02-14T13:33:24;4.13;;;1.58;;
43519;SDS011;46848;51.980;5.918;2024-02-14T13:35:50;2.75;;;1.42;;
43519;SDS011;46848;51.980;5.918;2024-02-14T13:38:16;2.40;;;1.33;;
43519;SDS011;46848;51.980;5.918;2024-02-14T13:40:42;2.45;;;1.25;;
43519;SDS011;46848;51.980;5.918;2024-02-14T13:43:08;1.90;;;1.25;;
43519;SDS011;46848;51.980;5.918;2024-02-14T13:45:44;2.17;;;1.50;;
43519;SDS011;46848;51.980;5.918;2024-02-14T13:48:11;4.38;;;1.50;;
43519;SDS011;46848;51.980;5.918;2024-02-14T13:50:37;3.22;;;1.60;;
43519;SDS011;46848;51.980;5.918;2024-02-14T13:53:03;2.13;;;1.45;;
43519;SDS011;46848;51.980;5.918;2024-02-14T13:55:30;1.80;;;1.23;;
43519;SDS011;46848;51.980;5.918;2024-02-14T13:57:55;1.50;;;1.15;;
43519;SDS011;46848;51.980;5.918;2024-02-14T14:00:21;2.35;;;1.60;;
43519;SDS011;46848;51.980;5.918;2024-02-14T14:02:46;3.20;;;1.60;;
43519;SDS011;46848;51.980;5.918;2024-02-14T14:05:12;3.75;;;1.90;;
43519;SDS011;46848;51.980;5.918;2024-02-14T14:07:38;2.85;;;1.77;;
43519;SDS011;46848;51.980;5.918;2024-02-14T14:10:05;4.90;;;1.90;;
43519;SDS011;46848;51.980;5.918;2024-02-14T14:12:32;4.03;;;1.75;;
43519;SDS011;46848;51.980;5.918;2024-02-14T14:14:58;3.10;;;1.90;;
43519;SDS011;46848;51.980;5.918;2024-02-14T14:17:24;3.30;;;2.00;;
43519;SDS011;46848;51.980;5.918;2024-02-14T14:19:50;3.10;;;2.10;;
43519;SDS011;46848;51.980;5.918;2024-02-14T14:22:16;3.38;;;1.95;;
43519;SDS011;46848;51.980;5.918;2024-02-14T14:24:41;4.03;;;2.08;;
43519;SDS011;46848;51.980;5.918;2024-02-14T14:27:07;4.75;;;2.83;;
43519;SDS011;46848;51.980;5.918;2024-02-14T14:29:43;2.83;;;1.85;;
43519;SDS011;46848;51.980;5.918;2024-02-14T14:32:11;3.85;;;2.53;;
43519;SDS011;46848;51.980;5.918;2024-02-14T14:34:37;4.43;;;2.40;;
43519;SDS011;46848;51.980;5.918;2024-02-14T14:37:03;3.45;;;2.42;;
43519;SDS011;46848;51.980;5.918;2024-02-14T14:39:29;4.70;;;2.47;;
43519;SDS011;46848;51.980;5.918;2024-02-14T14:41:56;5.15;;;2.78;;
43519;SDS011;46848;51.980;5.918;2024-02-14T14:44:24;5.07;;;2.28;;